Home > Products > Valid Products > TAF

000
FTUS44 KAMA 282300
TAFDHT
TAF
KDHT 282324Z 0100/0124 19010KT P6SM OVC012
     FM010300 16008KT 1SM BR OVC003
     FM011500 17006KT 3SM BR OVC010
     FM012000 06008KT 3SM BR OVC007=



000
FTUS44 KAMA 282300
TAFGUY
TAF
KGUY 282324Z 0100/0124 17008KT P6SM OVC020
     FM010500 16007KT 2SM -FZDZ BR OVC007
     FM011200 VRB05KT 1SM BR OVC004
     FM011800 03008KT 3SM BR OVC007=



000
FTUS44 KAMA 282300
TAFAMA
TAF
KAMA 282324Z 0100/0124 17010KT P6SM OVC010
     FM010300 15010KT 6SM BR OVC007
     FM010600 15010KT 2SM BR OVC004
     FM010800 15010KT 3/4SM BR OVC003
     FM011500 17008KT 2SM BR OVC005
     FM011900 15008KT P6SM OVC010=



000
FTUS44 KAMA 282300
TAFGUY
TAF
KGUY 282324Z 0100/0124 17008KT P6SM OVC020
     FM010500 16007KT 2SM -FZDZ BR OVC007
     FM011200 VRB05KT 1SM BR OVC004
     FM011800 03008KT 3SM BR OVC007=



000
FTUS44 KAMA 282300
TAFAMA
TAF
KAMA 282324Z 0100/0124 17010KT P6SM OVC010
     FM010300 15010KT 6SM BR OVC007
     FM010600 15010KT 2SM BR OVC004
     FM010800 15010KT 3/4SM BR OVC003
     FM011500 17008KT 2SM BR OVC005
     FM011900 15008KT P6SM OVC010=



000
FTUS44 KAMA 282300
TAFDHT
TAF
KDHT 282324Z 0100/0124 19010KT P6SM OVC012
     FM010300 16008KT 1SM BR OVC003
     FM011500 17006KT 3SM BR OVC010
     FM012000 06008KT 3SM BR OVC007=



000
FTUS44 KAMA 282100 AAA
TAFAMA
TAF AMD
KAMA 282148Z 2822/0118 18010KT P6SM OVC010
     FM010100 17010KT 6SM BR OVC007
     FM010300 15010KT 2SM BR OVC004
     FM010600 15010KT 3/4SM BR OVC003
     FM011500 17008KT 2SM BR OVC005=



000
FTUS44 KAMA 282100 AAA
TAFAMA
TAF AMD
KAMA 282148Z 2822/0118 18010KT P6SM OVC010
     FM010100 17010KT 6SM BR OVC007
     FM010300 15010KT 2SM BR OVC004
     FM010600 15010KT 3/4SM BR OVC003
     FM011500 17008KT 2SM BR OVC005=



000
FTUS44 KAMA 281900 AAA
TAFDHT
TAF AMD
KDHT 281942Z 2820/0118 21014KT P6SM OVC012
     FM010200 16008KT 1SM BR OVC003
     FM011500 17006KT 3SM BR OVC010=



000
FTUS44 KAMA 281900 AAA
TAFDHT
TAF AMD
KDHT 281942Z 2820/0118 21014KT P6SM OVC012
     FM010200 16008KT 1SM BR OVC003
     FM011500 17006KT 3SM BR OVC010=



000
FTUS44 KAMA 281700 RRA
TAFAMA
TAF
KAMA 281742Z 2818/0118 16011KT 6SM BR OVC005
     FM281900 16010KT P6SM OVC007
     FM010300 15010KT 2SM BR OVC004
     FM010600 15010KT 3/4SM BR OVC003
     FM011500 17008KT 2SM BR OVC005=



000
FTUS44 KAMA 281700 RRA
TAFGUY
TAF
KGUY 281742Z 2818/0118 17012KT P6SM BKN025
     FM282300 17010KT 6SM BR OVC015
     FM010200 16007KT 2SM -FZDZ BR OVC007
     FM011200 VRB05KT 1SM BR OVC004=



000
FTUS44 KAMA 281700 RRA
TAFDHT
TAF
KDHT 281742Z 2818/0118 19014KT P6SM OVC009
     FM010200 16008KT 1SM BR OVC003
     FM011500 17006KT 3SM BR OVC010=



000
FTUS44 KAMA 281700 RRA
TAFGUY
TAF
KGUY 281742Z 2818/0118 17012KT P6SM BKN025
     FM282300 17010KT 6SM BR OVC015
     FM010200 16007KT 2SM -FZDZ BR OVC007
     FM011200 VRB05KT 1SM BR OVC004=



000
FTUS44 KAMA 281700 RRA
TAFAMA
TAF
KAMA 281742Z 2818/0118 16011KT 6SM BR OVC005
     FM281900 16010KT P6SM OVC007
     FM010300 15010KT 2SM BR OVC004
     FM010600 15010KT 3/4SM BR OVC003
     FM011500 17008KT 2SM BR OVC005=



000
FTUS44 KAMA 281700 RRA
TAFDHT
TAF
KDHT 281742Z 2818/0118 19014KT P6SM OVC009
     FM010200 16008KT 1SM BR OVC003
     FM011500 17006KT 3SM BR OVC010=



000
FTUS44 KAMA 281600 AAC
TAFAMA
TAF AMD
KAMA 281642Z 2817/0112 17012KT 6SM BR OVC005
     FM281900 18015KT 6SM BR OVC010
     FM010300 17012KT 2SM BR OVC007=



000
FTUS44 KAMA 281600 AAA
TAFGUY
TAF AMD
KGUY 281616Z 2816/0112 17012KT P6SM SCT012 BKN030
     FM281800 17012KT P6SM OVC010
     FM010200 16007KT 2SM -FZDZ OVC007=



000
FTUS44 KAMA 281600 AAA
TAFGUY
TAF AMD
KGUY 281616Z 2816/0112 17012KT P6SM SCT012 BKN030
     FM281800 17012KT P6SM OVC010
     FM010200 16007KT 2SM -FZDZ OVC007=



000
FTUS44 KAMA 281500 AAB
TAFAMA
TAF AMD
KAMA 281508Z 2815/0112 16012KT 4SM BR OVC004
      TEMPO 2815/2817 1 1/2SM -SN BR
     FM281800 18015KT 6SM BR OVC012
     FM010300 17012KT 2SM BR OVC007=



000
FTUS44 KAMA 281500 AAB
TAFAMA
TAF AMD
KAMA 281508Z 2815/0112 16012KT 4SM BR OVC004
      TEMPO 2815/2817 1 1/2SM -SN BR
     FM281800 18015KT 6SM BR OVC012
     FM010300 17012KT 2SM BR OVC007=



000
FTUS44 KAMA 281200 AAA
TAFAMA
TAF AMD
KAMA 281245Z 2813/0112 17010KT 3SM -SN BR OVC004
     FM281500 18012KT 4SM BR OVC007
     FM281800 18015KT P6SM OVC012
     FM010300 17012KT 2SM BR OVC007=



000
FTUS44 KAMA 281200 AAA
TAFAMA
TAF AMD
KAMA 281245Z 2813/0112 17010KT 3SM -SN BR OVC004
     FM281500 18012KT 4SM BR OVC007
     FM281800 18015KT P6SM OVC012
     FM010300 17012KT 2SM BR OVC007=



000
FTUS44 KAMA 281100 RRA
TAFAMA
TAF
KAMA 281150Z 2812/0112 17010KT 4SM -SN BR SCT007 OVC015
      TEMPO 2812/2815 2SM -SN BR BKN007
     FM281500 18012KT 4SM BR BKN007
     FM281800 18015KT P6SM OVC012
     FM010300 17012KT 2SM BR OVC007=



000
FTUS44 KAMA 281100 RRA
TAFDHT
TAF
KDHT 281150Z 2812/0112 18012KT 5SM -SN BR SCT012 OVC025
      TEMPO 2812/2815 2SM -SN BR BKN010
     FM281500 19014KT P6SM OVC010
     FM010200 18008KT 2SM BR OVC007=



000
FTUS44 KAMA 281100 RRA
TAFGUY
TAF
KGUY 281150Z 2812/0112 17010KT 4SM -SN BR SCT015 BKN025
      TEMPO 2812/2816 2SM -SN BR BKN012
     FM281600 18012KT P6SM OVC012
     FM010200 16007KT 2SM -FZDZ OVC007=



000
FTUS44 KAMA 281100 RRA
TAFDHT
TAF
KDHT 281150Z 2812/0112 18012KT 5SM -SN BR SCT012 OVC025
      TEMPO 2812/2815 2SM -SN BR BKN010
     FM281500 19014KT P6SM OVC010
     FM010200 18008KT 2SM BR OVC007=



000
FTUS44 KAMA 281100 RRA
TAFGUY
TAF
KGUY 281150Z 2812/0112 17010KT 4SM -SN BR SCT015 BKN025
      TEMPO 2812/2816 2SM -SN BR BKN012
     FM281600 18012KT P6SM OVC012
     FM010200 16007KT 2SM -FZDZ OVC007=



000
FTUS44 KAMA 281100 RRA
TAFAMA
TAF
KAMA 281150Z 2812/0112 17010KT 4SM -SN BR SCT007 OVC015
      TEMPO 2812/2815 2SM -SN BR BKN007
     FM281500 18012KT 4SM BR BKN007
     FM281800 18015KT P6SM OVC012
     FM010300 17012KT 2SM BR OVC007=



000
FTUS44 KAMA 281000 AAC
TAFAMA
TAF AMD
KAMA 281023Z 2810/0106 17010KT 6SM -SN OVC025
     FM281300 17012KT 4SM -SN BR OVC008
     FM281600 18015KT P6SM OVC012=



000
FTUS44 KAMA 280900 AAB
TAFGUY
TAF AMD
KGUY 280924Z 2809/0106 16010KT 2SM -SN SCT012 OVC025
      TEMPO 2809/2813 1SM -SN OVC010
     FM281300 16010KT 5SM -SN OVC012
     FM281600 18015KT P6SM OVC015=



000
FTUS44 KAMA 280900 AAB
TAFDHT
TAF AMD
KDHT 280918Z 2809/0106 16012KT 2SM -SN BR OVC015
      TEMPO 2809/2812 3/4SM -SN BR OVC008
     FM281200 17012KT 5SM -SN BR OVC015
     FM281500 18014KT P6SM OVC008=



000
FTUS44 KAMA 280900 AAB
TAFDHT
TAF AMD
KDHT 280918Z 2809/0106 16012KT 2SM -SN BR OVC015
      TEMPO 2809/2812 3/4SM -SN BR OVC008
     FM281200 17012KT 5SM -SN BR OVC015
     FM281500 18014KT P6SM OVC008=



000
FTUS44 KAMA 280900 AAB
TAFAMA
TAF AMD
KAMA 280909Z 2809/0106 17010KT 4SM -SN BR SCT007 OVC015
      TEMPO 2809/2813 2SM -SN BKN007
     FM281300 17012KT 4SM -SN BR OVC008
     FM281600 18015KT P6SM OVC012=



000
FTUS44 KAMA 280800 AAA
TAFAMA
TAF AMD
KAMA 280816Z 2808/0106 16011KT 2SM -SN OVC008
     FM281300 17012KT 4SM -SN BR OVC008
     FM281600 18015KT P6SM OVC012=



000
FTUS44 KAMA 280700 AAA
TAFDHT
TAF AMD
KDHT 280729Z 2807/0106 16012KT 2SM -SN OVC025
      TEMPO 2807/2809 3/4SM -SN OVC015
     FM280900 17012KT 1SM -SN OVC008
     FM281500 18014KT P6SM OVC012=



000
FTUS44 KAMA 280600 AAA
TAFGUY
TAF AMD
KGUY 280628Z 2806/0106 16010KT 3SM -SN BKN012 OVC025
      TEMPO 2806/2810 3/4SM -SN OVC012
     FM281300 16010KT 5SM -SN OVC012
     FM281600 18015KT P6SM OVC015=



000
FTUS44 KAMA 280600 AAA
TAFGUY
TAF AMD
KGUY 280628Z 2806/0106 16010KT 3SM -SN BKN012 OVC025
      TEMPO 2806/2810 3/4SM -SN OVC012
     FM281300 16010KT 5SM -SN OVC012
     FM281600 18015KT P6SM OVC015=



000
FTUS44 KAMA 280500
TAFGUY
TAF
KGUY 280538Z 2806/0106 15010KT P6SM SCT015 OVC035
     FM280800 16010KT 2SM -SN OVC010
     FM281600 18015KT P6SM OVC015=



000
FTUS44 KAMA 280500
TAFDHT
TAF
KDHT 280538Z 2806/0106 16012KT 2SM -SN SCT008 OVC035
     FM280900 17012KT 1SM -SN OVC008
     FM281500 18014KT P6SM OVC012=



000
FTUS44 KAMA 280500
TAFAMA
TAF
KAMA 280538Z 2806/0106 14012KT 6SM -SN BKN008
     FM280800 16014KT 2SM -SN OVC008
     FM281600 18015KT P6SM OVC012=



000
FTUS44 KAMA 280500
TAFAMA
TAF
KAMA 280538Z 2806/0106 14012KT 6SM -SN BKN008
     FM280800 16014KT 2SM -SN OVC008
     FM281600 18015KT P6SM OVC012=



000
FTUS44 KAMA 280500
TAFDHT
TAF
KDHT 280538Z 2806/0106 16012KT 2SM -SN SCT008 OVC035
     FM280900 17012KT 1SM -SN OVC008
     FM281500 18014KT P6SM OVC012=



000
FTUS44 KAMA 280500
TAFGUY
TAF
KGUY 280538Z 2806/0106 15010KT P6SM SCT015 OVC035
     FM280800 16010KT 2SM -SN OVC010
     FM281600 18015KT P6SM OVC015=



000
FTUS44 KAMA 280400 AAB
TAFDHT
TAF AMD
KDHT 280448Z 2805/2824 16012KT 1 1/2SM -SN BKN025 OVC035
     FM280900 17012KT 3SM -SN OVC010
     FM281200 18014KT P6SM OVC012=



000
FTUS44 KAMA 280400 AAC
TAFGUY
TAF AMD
KGUY 280445Z 2805/2824 15010KT 1 1/2SM -SN BKN025 OVC035
     FM280800 16010KT 3SM -SN OVC010
     FM281400 18015KT P6SM OVC015=



000
FTUS44 KAMA 280300 AAB
TAFGUY
TAF AMD
KGUY 280332Z 2804/2824 15010KT 6SM -SN BKN018 OVC035
     FM280800 16010KT 3SM -SN OVC010
     FM281400 18015KT P6SM OVC015=



000
FTUS44 KAMA 280200 AAA
TAFAMA
TAF AMD
KAMA 280222Z 2802/2824 14012KT 6SM -SN SCT010 OVC035
     FM280800 16014KT 3SM -SN OVC008
     FM281400 18015KT P6SM OVC012=



000
FTUS44 KAMA 280200 AAA
TAFDHT
TAF AMD
KDHT 280202Z 2802/2824 16012KT P6SM SCT012 OVC035
     FM280600 17012KT 3SM -SN OVC010
     FM281200 18014KT P6SM OVC012=



000
FTUS44 KAMA 280200 AAA
TAFGUY
TAF AMD
KGUY 280202Z 2802/2824 15010KT 6SM -SN SCT020 OVC035
     FM280800 16010KT 3SM -SN OVC010
     FM281400 18015KT P6SM OVC015=



000
FTUS44 KAMA 272300 RRA
TAFGUY
TAF
KGUY 272346Z 2800/2824 15010KT 6SM -SN SCT012 OVC022
     FM280800 16010KT 3SM -SN OVC010
     FM281400 18015KT P6SM OVC015=



000
FTUS44 KAMA 272300 RRA
TAFAMA
TAF
KAMA 272346Z 2800/2824 14014KT 4SM -SN OVC012
     FM280800 16014KT 3SM -SN OVC008
     FM281400 18015KT P6SM OVC012=



000
FTUS44 KAMA 272300 RRA
TAFDHT
TAF
KDHT 272346Z 2800/2824 16014KT 3SM -SN OVC022
     FM280600 17012KT 3SM -SN OVC010
     FM281200 18014KT P6SM OVC012=



000
FTUS44 KAMA 271900 AAC
TAFGUY
TAF AMD
KGUY 271921Z 2719/2818 15010KT P6SM OVC035
     FM280300 16011KT 3SM -SN BR OVC012
     FM281700 18015KT 6SM BR BKN025=



000
FTUS44 KAMA 271900 AAC
TAFGUY
TAF AMD
KGUY 271921Z 2719/2818 15010KT P6SM OVC035
     FM280300 16011KT 3SM -SN BR OVC012
     FM281700 18015KT 6SM BR BKN025=



000
FTUS44 KAMA 271800 AAA
TAFDHT
TAF AMD
KDHT 271849Z 2719/2818 16014KT P6SM OVC015
      TEMPO 2719/2721 2SM -SN
     FM280400 17013KT 3SM -SN BR OVC010
     FM281600 18012KT 6SM BR BKN012=



000
FTUS44 KAMA 271800 AAA
TAFDHT
TAF AMD
KDHT 271849Z 2719/2818 16014KT P6SM OVC015
      TEMPO 2719/2721 2SM -SN
     FM280400 17013KT 3SM -SN BR OVC010
     FM281600 18012KT 6SM BR BKN012=



000
FTUS44 KAMA 271800 AAB
TAFGUY
TAF AMD
KGUY 271847Z 2719/2818 14014KT 1 1/2SM -SN OVC015
     FM272000 15010KT P6SM OVC026
     FM280300 16011KT 3SM -SN BR OVC012
     FM281700 18015KT 6SM BR BKN025=



000
FTUS44 KAMA 271800 AAB
TAFGUY
TAF AMD
KGUY 271847Z 2719/2818 14014KT 1 1/2SM -SN OVC015
     FM272000 15010KT P6SM OVC026
     FM280300 16011KT 3SM -SN BR OVC012
     FM281700 18015KT 6SM BR BKN025=



000
FTUS44 KAMA 271700 AAA
TAFGUY
TAF AMD
KGUY 271742Z 2718/2818 14014KT 1 1/2SM -SN OVC015
      TEMPO 2718/2720 3/4SM -SN
     FM272000 15010KT P6SM OVC026
     FM280300 16011KT 3SM -SN BR OVC012
     FM281700 18015KT 6SM BR BKN025=



000
FTUS44 KAMA 271700 AAA
TAFGUY
TAF AMD
KGUY 271742Z 2718/2818 14014KT 1 1/2SM -SN OVC015
      TEMPO 2718/2720 3/4SM -SN
     FM272000 15010KT P6SM OVC026
     FM280300 16011KT 3SM -SN BR OVC012
     FM281700 18015KT 6SM BR BKN025=



000
FTUS44 KAMA 271700 CCA
TAFDHT
TAF COR
KDHT 271733Z 2718/2818 16014KT P6SM OVC015
     FM280400 17013KT 3SM -SN BR OVC010
     FM281600 18012KT 6SM BR BKN012=



000
FTUS44 KAMA 271700
TAFGUY
TAF
KGUY 271720Z 2718/2818 14014KT 1 1/2SM -SN OVC015
     FM272000 15010KT P6SM OVC026
     FM280300 16011KT 3SM -SN BR OVC012
     FM281700 18015KT 6SM BR BKN025=



000
FTUS44 KAMA 271700
TAFDHT
TAF
KDHT 271720Z 2718/2818 15014KT 1 1/2SM -SN BKN016
     FM272000 16014KT P6SM OVC015
     FM280400 17013KT 3SM -SN BR OVC010
     FM281600 18012KT 6SM BR BKN012=



000
FTUS44 KAMA 271700
TAFAMA
TAF
KAMA 271720Z 2718/2818 14014KT P6SM OVC015
      TEMPO 2718/2719 4SM -SN
     FM280700 16014KT 3SM -SN BR OVC009
     FM281500 16015KT 6SM BR OVC012=



000
FTUS44 KAMA 271700 AAD
TAFGUY
TAF AMD
KGUY 271700Z 2717/2812 14013KT 1SM -SN BR OVC015
     FM271800 16014KT P6SM OVC020
     FM280300 16011KT 3SM -SN BR OVC012=



000
FTUS44 KAMA 271700 AAD
TAFGUY
TAF AMD
KGUY 271700Z 2717/2812 14013KT 1SM -SN BR OVC015
     FM271800 16014KT P6SM OVC020
     FM280300 16011KT 3SM -SN BR OVC012=



000
FTUS44 KAMA 271600 AAB
TAFAMA
TAF AMD
KAMA 271606Z 2716/2812 11014KT 1SM -SN BR OVC012
     FM271630 13015KT 2SM -SN BR OVC015
     FM271700 14014KT P6SM OVC015
     FM280700 16014KT 3SM -SN BR OVC010=



000
FTUS44 KAMA 271600 AAB
TAFAMA
TAF AMD
KAMA 271606Z 2716/2812 11014KT 1SM -SN BR OVC012
     FM271630 13015KT 2SM -SN BR OVC015
     FM271700 14014KT P6SM OVC015
     FM280700 16014KT 3SM -SN BR OVC010=



000
FTUS44 KAMA 271500 AAC
TAFGUY
TAF AMD
KGUY 271524Z 2715/2812 11011KT 1 1/2SM -SN BR OVC015
     FM271700 14013KT 3SM -SN BR OVC015
     FM271800 16014KT P6SM OVC020
     FM280300 16011KT 3SM -SN BR OVC012=



000
FTUS44 KAMA 271500 AAA
TAFAMA
TAF AMD
KAMA 271524Z 2715/2812 11014KT 1SM -SN BR OVC012
     FM271630 13015KT 3SM -SN BR OVC015
     FM271700 15014KT P6SM OVC015
     FM280700 16014KT 3SM -SN BR OVC010=



000
FTUS44 KAMA 271500 AAD
TAFDHT
TAF AMD
KDHT 271523Z 2715/2812 12012KT 2SM -SN BR BKN015 OVC060
      TEMPO 2716/2718 3SM -SN
     FM271800 16014KT P6SM OVC015
     FM280400 17013KT 3SM -SN BR OVC010=



000
FTUS44 KAMA 271400 AAC
TAFDHT
TAF AMD
KDHT 271431Z 2715/2812 12012KT 1SM -SN BR BKN015 OVC060
      TEMPO 2715/2716 1/2SM SN
     FM271600 16014KT P6SM OVC015
     FM280400 17013KT 3SM -SN BR OVC010=



000
FTUS44 KAMA 271400 AAC
TAFDHT
TAF AMD
KDHT 271431Z 2715/2812 12012KT 1SM -SN BR BKN015 OVC060
      TEMPO 2715/2716 1/2SM SN
     FM271600 16014KT P6SM OVC015
     FM280400 17013KT 3SM -SN BR OVC010=



000
FTUS44 KAMA 271400 AAB
TAFDHT
TAF AMD
KDHT 271421Z 2714/2812 12012KT 4SM -SN BR BKN015 OVC060
      TEMPO 2714/2716 1SM -SN
     FM271600 16014KT P6SM OVC015
     FM280400 17013KT 3SM -SN BR OVC010=



000
FTUS44 KAMA 271400 AAB
TAFDHT
TAF AMD
KDHT 271421Z 2714/2812 12012KT 4SM -SN BR BKN015 OVC060
      TEMPO 2714/2716 1SM -SN
     FM271600 16014KT P6SM OVC015
     FM280400 17013KT 3SM -SN BR OVC010=



000
FTUS44 KAMA 271200 AAB
TAFGUY
TAF AMD
KGUY 271255Z 2713/2812 11011KT 1 1/2SM -SN BR OVC015
     FM271600 14013KT 3SM -SN BR OVC015
     FM271800 16014KT P6SM OVC020
     FM280300 16011KT 3SM -SN BR OVC012=



000
FTUS44 KAMA 271200 AAA
TAFDHT
TAF AMD
KDHT 271254Z 2713/2812 12012KT 4SM -SN BR BKN015 OVC060
     FM271600 16014KT P6SM OVC015
     FM280400 17013KT 3SM -SN BR OVC010=



000
FTUS44 KAMA 271200 AAA
TAFGUY
TAF AMD
KGUY 271209Z 2712/2812 11011KT 1 1/2SM -SN BR OVC015
      TEMPO 2712/2715 1/2SM -SN FZFG OVC010
     FM271600 14013KT 3SM -SN BR OVC015
     FM271800 16014KT P6SM OVC020
     FM280300 16011KT 3SM -SN BR OVC012=



000
FTUS44 KAMA 271100 RRA
TAFAMA
TAF
KAMA 271142Z 2712/2812 11014KT 1SM -SN BR OVC012
      TEMPO 2712/2715 1/2SM SN FZFG OVC008
     FM271530 13015KT 3SM -SN BR OVC015
     FM271700 15014KT P6SM OVC015
     FM280700 16014KT 3SM -SN BR OVC010=



000
FTUS44 KAMA 271100 RRA
TAFGUY
TAF
KGUY 271142Z 2712/2812 11011KT 1 1/2SM -SN BR OVC015
     FM271600 14013KT 3SM -SN BR OVC015
     FM271800 16014KT P6SM OVC020
     FM280300 16011KT 3SM -SN BR OVC012=



000
FTUS44 KAMA 271100 RRA
TAFDHT
TAF
KDHT 271142Z 2712/2812 11012KT 1SM -SN BR OVC015
      TEMPO 2712/2713 1/2SM SN FZFG OVC008
     FM271400 13015KT 3SM -SN BR OVC015
     FM271700 16014KT P6SM OVC015
     FM280400 17013KT 3SM -SN BR OVC010=



000
FTUS44 KAMA 270900 AAA
TAFGUY
TAF AMD
KGUY 270946Z 2710/2806 09010KT 1 1/2SM -SN OVC015
     FM271600 14014KT 4SM -SN OVC015
     FM271800 15013KT P6SM OVC020=



000
FTUS44 KAMA 270900 AAB
TAFAMA
TAF AMD
KAMA 270939Z 2710/2806 12013KT 1 1/2SM -SN OVC015
      TEMPO 2710/2714 1/2SM SN OVC008
     FM271600 14015KT 4SM -SN BR OVC015
     FM271800 15014KT P6SM OVC015=



000
FTUS44 KAMA 270800 AAC
TAFDHT
TAF AMD
KDHT 270826Z 2708/2806 10010KT 1 1/2SM -SN OVC015
      TEMPO 2708/2712 1/2SM SN OVC008
     FM271200 10012KT 3SM -SN OVC015
     FM271600 16014KT 6SM -SHSN OVC015=



000
FTUS44 KAMA 270800 AAA
TAFAMA
TAF AMD
KAMA 270817Z 2708/2806 09012KT P6SM FEW025 OVC050
     FM270900 12015KT 1 1/2SM -SN BKN025
     FM271200 12016KT 1SM -SN OVC008
     FM271800 14015KT 2SM -SN OVC015=



000
FTUS44 KAMA 270800 AAB
TAFDHT
TAF AMD
KDHT 270810Z 2708/2806 10010KT 1 1/2SM -SN OVC020
     FM271000 10012KT 1 1/2SM -SN OVC010
     FM271600 16014KT 3SM -SN OVC015=



000
FTUS44 KAMA 270600 AAA
TAFDHT
TAF AMD
KDHT 270623Z 2706/2806 08013KT 4SM -SN OVC040
     FM270800 10010KT 4SM -SN OVC020
     FM271000 10012KT 1 1/2SM -SN OVC010
     FM271600 16014KT 3SM -SN OVC015=



000
FTUS44 KAMA 270500
TAFGUY
TAF
KGUY 270525Z 2706/2806 09010KT P6SM FEW025 OVC060
     FM270900 10010KT 5SM -SN OVC025
     FM271200 10012KT 2SM -SN OVC010
     FM271600 14014KT 4SM -SN OVC015=



000
FTUS44 KAMA 270500
TAFDHT
TAF
KDHT 270525Z 2706/2806 08013KT 6SM -SN OVC040
     FM270800 10010KT 4SM -SN OVC020
     FM271000 10012KT 1 1/2SM -SN OVC010
     FM271600 16014KT 3SM -SN OVC015=



000
FTUS44 KAMA 270400 AAA
TAFDHT
TAF AMD
KDHT 270415Z 2704/2724 08013KT 6SM -SN OVC040
     FM270600 10010KT 4SM -SN OVC020
     FM271000 10012KT 1SM -SN OVC008
     FM271600 15015KT 3SM -SN OVC015=



000
FTUS44 KAMA 262300
TAFAMA
TAF
KAMA 262340Z 2700/2724 09012KT P6SM SCT035 OVC080
     FM271000 12015KT 4SM -SN OVC020
     FM271200 12016KT 1SM -SN OVC008
     FM271800 14015KT 3SM -SN OVC015=



000
FTUS44 KAMA 262300
TAFGUY
TAF
KGUY 262340Z 2700/2724 08010KT P6SM SCT030 OVC080
     FM270800 10010KT 4SM -SN OVC020
     FM271000 10012KT 1SM -SN OVC008
     FM271600 15015KT 3SM -SN OVC015=



000
FTUS44 KAMA 262300
TAFDHT
TAF
KDHT 262340Z 2700/2724 08013KT 6SM -SN OVC022
     FM270600 10010KT 4SM -SN OVC020
     FM271000 10012KT 1SM -SN OVC008
     FM271600 15015KT 3SM -SN OVC015=



000
FTUS44 KAMA 261900 AAB
TAFDHT
TAF AMD
KDHT 261945Z 2620/2718 08013KT 5SM -SN BKN028
      TEMPO 2620/2621 2SM -SN OVC023
     FM262100 05012KT P6SM SCT028 BKN100
     FM270600 10016KT 3SM -SN OVC008
     FM271500 15016KT 1SM -SN OVC005=



000
FTUS44 KAMA 261800 AAA
TAFGUY
TAF AMD
KGUY 261816Z 2618/2718 03010KT P6SM SCT025 OVC060
      TEMPO 2618/2620 BKN026
     FM262100 05008KT P6SM SCT025 BKN100
     FM270600 11010KT 5SM -SN OVC020
     FM270800 12010KT 2SM -SN OVC008=



000
FTUS44 KAMA 261800 AAA
TAFAMA
TAF AMD
KAMA 261815Z 2618/2718 03015KT P6SM SCT015 BKN070
      TEMPO 2618/2620 5SM -SN OVC018
     FM270600 12015KT 5SM -SN OVC020
     FM270800 12016KT 2SM -SN OVC006=



000
FTUS44 KAMA 261800 AAA
TAFDHT
TAF AMD
KDHT 261814Z 2618/2718 08013KT 5SM -SN BKN028
      TEMPO 2618/2620 1SM -SN OVC021
     FM262000 05012KT P6SM SCT028 BKN100
     FM270600 10016KT 3SM -SN OVC008
     FM271500 15016KT 1SM -SN OVC005=



000
FTUS44 KAMA 261700 CCA
TAFGUY
TAF COR
KGUY 261750Z 2618/2718 03010KT P6SM SCT025 OVC060
     FM262100 05008KT P6SM SCT025 BKN100
     FM270600 11010KT 5SM -SN OVC020
     FM270800 12010KT 2SM -SN OVC008=



000
FTUS44 KAMA 261700 CCA
TAFGUY
TAF COR
KGUY 261750Z 2618/2718 03010KT P6SM SCT025 OVC060
     FM262100 05008KT P6SM SCT025 BKN100
     FM270600 11010KT 5SM -SN OVC020
     FM270800 12010KT 2SM -SN OVC008=



000
FTUS44 KAMA 261600 AAA
TAFGUY
TAF AMD
KGUY 261614Z 2616/2712 04018KT P6SM BKN025 OVC100
     FM261800 08013KT P6SM OVC025
      TEMPO 2708/2712 4SM -SN BR OVC008=



000
FTUS44 KAMA 261400 AAA
TAFDHT
TAF AMD
KDHT 261427Z 2614/2712 04017KT P6SM BKN015 OVC080
      TEMPO 2614/2616 2SM -SN SCT015
     FM261800 09013KT P6SM OVC015
      TEMPO 2706/2710 2SM -SN OVC008=



000
FTUS44 KAMA 261100
TAFDHT
TAF
KDHT 261139Z 2612/2712 04017KT P6SM BKN015 OVC080
      TEMPO 2612/2616 SCT015
     FM261800 09013KT P6SM OVC015
      TEMPO 2706/2710 2SM -SN OVC008=



000
FTUS44 KAMA 261100
TAFGUY
TAF
KGUY 261139Z 2612/2712 04018KT P6SM BKN015 OVC100
     FM261800 08013KT P6SM OVC025
      TEMPO 2708/2712 4SM -SN BR OVC008=



000
FTUS44 KAMA 261100
TAFAMA
TAF
KAMA 261139Z 2612/2712 03018KT P6SM BKN015 OVC080
      TEMPO 2613/2617 SCT015
     FM261700 05015KT P6SM SCT015 OVC035
     FM270600 12015KT P6SM -SN OVC020
      TEMPO 2708/2712 4SM -SN BR OVC008=



000
FTUS44 KAMA 261100
TAFDHT
TAF
KDHT 261139Z 2612/2712 04017KT P6SM BKN015 OVC080
      TEMPO 2612/2616 SCT015
     FM261800 09013KT P6SM OVC015
      TEMPO 2706/2710 2SM -SN OVC008=



000
FTUS44 KAMA 261100
TAFGUY
TAF
KGUY 261139Z 2612/2712 04018KT P6SM BKN015 OVC100
     FM261800 08013KT P6SM OVC025
      TEMPO 2708/2712 4SM -SN BR OVC008=



000
FTUS44 KAMA 261100
TAFAMA
TAF
KAMA 261139Z 2612/2712 03018KT P6SM BKN015 OVC080
      TEMPO 2613/2617 SCT015
     FM261700 05015KT P6SM SCT015 OVC035
     FM270600 12015KT P6SM -SN OVC020
      TEMPO 2708/2712 4SM -SN BR OVC008=



000
FTUS44 KAMA 261000 AAB
TAFDHT
TAF AMD
KDHT 261043Z 2611/2706 03015KT P6SM SCT015 OVC080
     FM261600 06010KT P6SM SCT015 OVC040
     FM262300 10010KT P6SM SCT010 OVC030=



000
FTUS44 KAMA 260900 AAA
TAFDHT
TAF AMD
KDHT 260956Z 2610/2706 02020KT P6SM OVC015
     FM261200 02014KT P6SM -SN SCT010 OVC030
     FM261600 06010KT P6SM SCT015 OVC040
     FM262300 10010KT P6SM SCT010 OVC030=



000
FTUS44 KAMA 260900 AAA
TAFGUY
TAF AMD
KGUY 260955Z 2610/2706 02018KT P6SM BKN015 OVC060
     FM261400 04010KT P6SM SCT010 OVC040
     FM262300 08008KT P6SM SCT025 OVC060=



000
FTUS44 KAMA 260900 AAA
TAFGUY
TAF AMD
KGUY 260955Z 2610/2706 02018KT P6SM BKN015 OVC060
     FM261400 04010KT P6SM SCT010 OVC040
     FM262300 08008KT P6SM SCT025 OVC060=



000
FTUS44 KAMA 260900 AAA
TAFAMA
TAF AMD
KAMA 260952Z 2610/2706 02016G26KT P6SM BKN015 OVC070
      TEMPO 2610/2614 SCT015
     FM261600 04011KT P6SM SCT010 OVC040
     FM262300 09012KT P6SM SCT040 OVC100=



000
FTUS44 KAMA 260500
TAFDHT
TAF
KDHT 260520Z 2606/2706 03014G20KT P6SM SCT025 OVC040
      TEMPO 2606/2608 4SM -SN BR SCT010 OVC025
     FM260800 04022G35KT P6SM OVC010
      TEMPO 2608/2612 2SM -SN OVC008
     FM261200 02014KT P6SM -SN SCT010 OVC030
     FM261600 06010KT P6SM SCT015 OVC040
     FM262300 10010KT P6SM SCT010 OVC030=



000
FTUS44 KAMA 260500
TAFAMA
TAF
KAMA 260520Z 2606/2706 02022G40KT P6SM -RA SCT015 OVC025
      TEMPO 2606/2610 4SM -SN BR OVC015
     FM261000 02016G26KT P6SM -SN SCT010 OVC025
      TEMPO 2610/2614 1SM -SN BR OVC006
     FM261600 04011KT P6SM SCT010 OVC040
     FM262300 09012KT P6SM SCT040 OVC100=



000
FTUS44 KAMA 260500
TAFGUY
TAF
KGUY 260520Z 2606/2706 02018G30KT P6SM SCT025 OVC060
     FM261000 01012KT P6SM SCT020 OVC060
     FM261400 04010KT P6SM SCT010 OVC040
     FM262300 08008KT P6SM SCT025 OVC060=



000
FTUS44 KAMA 260500
TAFDHT
TAF
KDHT 260520Z 2606/2706 03014G20KT P6SM SCT025 OVC040
      TEMPO 2606/2608 4SM -SN BR SCT010 OVC025
     FM260800 04022G35KT P6SM OVC010
      TEMPO 2608/2612 2SM -SN OVC008
     FM261200 02014KT P6SM -SN SCT010 OVC030
     FM261600 06010KT P6SM SCT015 OVC040
     FM262300 10010KT P6SM SCT010 OVC030=



000
FTUS44 KAMA 260500
TAFGUY
TAF
KGUY 260520Z 2606/2706 02018G30KT P6SM SCT025 OVC060
     FM261000 01012KT P6SM SCT020 OVC060
     FM261400 04010KT P6SM SCT010 OVC040
     FM262300 08008KT P6SM SCT025 OVC060=



000
FTUS44 KAMA 260500
TAFAMA
TAF
KAMA 260520Z 2606/2706 02022G40KT P6SM -RA SCT015 OVC025
      TEMPO 2606/2610 4SM -SN BR OVC015
     FM261000 02016G26KT P6SM -SN SCT010 OVC025
      TEMPO 2610/2614 1SM -SN BR OVC006
     FM261600 04011KT P6SM SCT010 OVC040
     FM262300 09012KT P6SM SCT040 OVC100=



000
FTUS44 KAMA 260400 AAB
TAFDHT
TAF AMD
KDHT 260442Z 2605/2624 03014G20KT P6SM SCT025 OVC040
      TEMPO 2605/2607 4SM -SN BR OVC025
     FM260700 04022G35KT P6SM OVC010
      TEMPO 2607/2610 2SM -SN OVC008
     FM261000 02012KT P6SM -SN SCT010 OVC030
     FM261400 05009KT P6SM SCT015 OVC040=



000
FTUS44 KAMA 260400 AAB
TAFDHT
TAF AMD
KDHT 260442Z 2605/2624 03014G20KT P6SM SCT025 OVC040
      TEMPO 2605/2607 4SM -SN BR OVC025
     FM260700 04022G35KT P6SM OVC010
      TEMPO 2607/2610 2SM -SN OVC008
     FM261000 02012KT P6SM -SN SCT010 OVC030
     FM261400 05009KT P6SM SCT015 OVC040=



    US Dept of Commerce
    National Oceanic and Atmospheric Administration
    National Weather Service
    1325 East West Highway
    Silver Spring, MD 20910
    Page Author: NWS Internet Services Team
Disclaimer
Information Quality
Credits
Glossary
Privacy Policy
Freedom of Information Act (FOIA)
About Us
Career Opportunities